sensor_id;sensor_type;location;lat;lon;timestamp;P1;durP1;ratioP1;P2;durP2;ratioP2
13366;SDS011;6752;52.612;13.630;2023-12-14T00:04:40;17.97;;;11.33;;
13366;SDS011;6752;52.612;13.630;2023-12-14T00:09:41;17.10;;;12.20;;
13366;SDS011;6752;52.612;13.630;2023-12-14T00:14:43;15.40;;;11.50;;
13366;SDS011;6752;52.612;13.630;2023-12-14T00:19:46;14.30;;;11.00;;
13366;SDS011;6752;52.612;13.630;2023-12-14T00:24:48;11.93;;;9.93;;
13366;SDS011;6752;52.612;13.630;2023-12-14T00:29:50;18.43;;;10.83;;
13366;SDS011;6752;52.612;13.630;2023-12-14T00:34:53;14.00;;;9.70;;
13366;SDS011;6752;52.612;13.630;2023-12-14T00:39:55;14.53;;;9.87;;
13366;SDS011;6752;52.612;13.630;2023-12-14T00:44:57;13.07;;;10.27;;
13366;SDS011;6752;52.612;13.630;2023-12-14T07:10:05;12.10;;;10.67;;
13366;SDS011;6752;52.612;13.630;2023-12-14T07:15:08;12.77;;;10.87;;
13366;SDS011;6752;52.612;13.630;2023-12-14T07:20:10;12.60;;;10.50;;
13366;SDS011;6752;52.612;13.630;2023-12-14T07:25:13;12.30;;;10.70;;
13366;SDS011;6752;52.612;13.630;2023-12-14T07:30:15;13.33;;;10.90;;
13366;SDS011;6752;52.612;13.630;2023-12-14T07:35:17;13.20;;;11.80;;
13366;SDS011;6752;52.612;13.630;2023-12-14T07:40:20;12.77;;;10.47;;
13366;SDS011;6752;52.612;13.630;2023-12-14T07:45:23;15.17;;;12.23;;
13366;SDS011;6752;52.612;13.630;2023-12-14T07:50:25;13.10;;;10.83;;
13366;SDS011;6752;52.612;13.630;2023-12-14T07:55:28;14.53;;;11.93;;
13366;SDS011;6752;52.612;13.630;2023-12-14T08:00:30;11.90;;;10.43;;
13366;SDS011;6752;52.612;13.630;2023-12-14T08:05:32;14.73;;;12.10;;
13366;SDS011;6752;52.612;13.630;2023-12-14T08:10:35;13.90;;;11.17;;
13366;SDS011;6752;52.612;13.630;2023-12-14T08:15:37;12.77;;;10.70;;
13366;SDS011;6752;52.612;13.630;2023-12-14T08:20:39;14.23;;;10.73;;
13366;SDS011;6752;52.612;13.630;2023-12-14T08:25:42;12.47;;;10.43;;
13366;SDS011;6752;52.612;13.630;2023-12-14T08:30:44;12.10;;;10.00;;
13366;SDS011;6752;52.612;13.630;2023-12-14T08:35:48;10.77;;;9.03;;
13366;SDS011;6752;52.612;13.630;2023-12-14T08:40:50;11.93;;;10.10;;
13366;SDS011;6752;52.612;13.630;2023-12-14T08:45:52;10.33;;;8.90;;
13366;SDS011;6752;52.612;13.630;2023-12-14T08:50:55;10.00;;;8.50;;
13366;SDS011;6752;52.612;13.630;2023-12-14T08:56:00;12.43;;;9.47;;
13366;SDS011;6752;52.612;13.630;2023-12-14T09:00:59;12.10;;;10.27;;
13366;SDS011;6752;52.612;13.630;2023-12-14T09:06:02;13.13;;;10.97;;
13366;SDS011;6752;52.612;13.630;2023-12-14T09:11:04;14.10;;;11.47;;
13366;SDS011;6752;52.612;13.630;2023-12-14T09:16:06;14.40;;;12.00;;
13366;SDS011;6752;52.612;13.630;2023-12-14T09:21:09;15.37;;;11.30;;
13366;SDS011;6752;52.612;13.630;2023-12-14T09:26:11;14.30;;;11.90;;
13366;SDS011;6752;52.612;13.630;2023-12-14T09:31:14;14.33;;;11.93;;
13366;SDS011;6752;52.612;13.630;2023-12-14T09:36:16;14.90;;;12.17;;
13366;SDS011;6752;52.612;13.630;2023-12-14T09:41:18;15.33;;;11.83;;
13366;SDS011;6752;52.612;13.630;2023-12-14T09:46:24;14.87;;;11.83;;
13366;SDS011;6752;52.612;13.630;2023-12-14T09:51:23;15.23;;;11.67;;
13366;SDS011;6752;52.612;13.630;2023-12-14T09:56:26;15.47;;;11.50;;
13366;SDS011;6752;52.612;13.630;2023-12-14T10:01:28;14.33;;;10.90;;
13366;SDS011;6752;52.612;13.630;2023-12-14T10:06:30;13.25;;;11.95;;
13366;SDS011;6752;52.612;13.630;2023-12-14T10:11:33;13.13;;;11.27;;
13366;SDS011;6752;52.612;13.630;2023-12-14T10:16:35;11.83;;;9.80;;
13366;SDS011;6752;52.612;13.630;2023-12-14T10:21:37;13.20;;;10.57;;
13366;SDS011;6752;52.612;13.630;2023-12-14T10:26:40;12.53;;;10.13;;
13366;SDS011;6752;52.612;13.630;2023-12-14T10:31:43;12.47;;;10.37;;
13366;SDS011;6752;52.612;13.630;2023-12-14T10:36:45;12.63;;;10.67;;
13366;SDS011;6752;52.612;13.630;2023-12-14T10:41:47;12.23;;;9.93;;
13366;SDS011;6752;52.612;13.630;2023-12-14T10:46:53;12.23;;;9.70;;
13366;SDS011;6752;52.612;13.630;2023-12-14T10:51:54;12.17;;;10.07;;
13366;SDS011;6752;52.612;13.630;2023-12-14T10:56:56;13.03;;;10.40;;
13366;SDS011;6752;52.612;13.630;2023-12-14T11:02:06;12.73;;;10.17;;
13366;SDS011;6752;52.612;13.630;2023-12-14T11:07:04;12.70;;;10.07;;
13366;SDS011;6752;52.612;13.630;2023-12-14T11:12:06;12.10;;;10.20;;
13366;SDS011;6752;52.612;13.630;2023-12-14T11:17:09;12.00;;;9.97;;
13366;SDS011;6752;52.612;13.630;2023-12-14T11:22:11;11.60;;;9.67;;
13366;SDS011;6752;52.612;13.630;2023-12-14T11:27:16;12.97;;;10.33;;
13366;SDS011;6752;52.612;13.630;2023-12-14T11:32:19;11.93;;;9.57;;
13366;SDS011;6752;52.612;13.630;2023-12-14T11:37:21;13.63;;;10.27;;
13366;SDS011;6752;52.612;13.630;2023-12-14T11:42:23;11.93;;;10.17;;
13366;SDS011;6752;52.612;13.630;2023-12-14T11:47:26;11.50;;;9.40;;
13366;SDS011;6752;52.612;13.630;2023-12-14T11:52:28;11.87;;;10.10;;
13366;SDS011;6752;52.612;13.630;2023-12-14T11:57:30;10.77;;;9.63;;
13366;SDS011;6752;52.612;13.630;2023-12-14T12:02:33;11.43;;;9.23;;
13366;SDS011;6752;52.612;13.630;2023-12-14T12:07:35;10.47;;;8.97;;
13366;SDS011;6752;52.612;13.630;2023-12-14T12:12:37;11.83;;;9.30;;
13366;SDS011;6752;52.612;13.630;2023-12-14T12:17:40;12.63;;;9.20;;
13366;SDS011;6752;52.612;13.630;2023-12-14T12:22:42;11.80;;;9.30;;
13366;SDS011;6752;52.612;13.630;2023-12-14T12:27:45;11.37;;;9.20;;
13366;SDS011;6752;52.612;13.630;2023-12-14T12:32:47;12.33;;;9.70;;
13366;SDS011;6752;52.612;13.630;2023-12-14T12:37:49;10.00;;;8.80;;
13366;SDS011;6752;52.612;13.630;2023-12-14T12:42:52;11.87;;;10.03;;
13366;SDS011;6752;52.612;13.630;2023-12-14T12:47:54;12.32;;;11.05;;
13366;SDS011;6752;52.612;13.630;2023-12-14T12:52:56;11.27;;;10.07;;
13366;SDS011;6752;52.612;13.630;2023-12-14T12:57:59;12.23;;;10.23;;
13366;SDS011;6752;52.612;13.630;2023-12-14T13:03:01;11.73;;;9.97;;
13366;SDS011;6752;52.612;13.630;2023-12-14T13:08:04;12.03;;;9.90;;
13366;SDS011;6752;52.612;13.630;2023-12-14T13:13:06;12.90;;;10.63;;
13366;SDS011;6752;52.612;13.630;2023-12-14T13:18:08;12.40;;;9.77;;
13366;SDS011;6752;52.612;13.630;2023-12-14T13:23:11;12.83;;;10.53;;
13366;SDS011;6752;52.612;13.630;2023-12-14T13:28:13;12.37;;;10.00;;
13366;SDS011;6752;52.612;13.630;2023-12-14T13:33:15;12.27;;;9.40;;
13366;SDS011;6752;52.612;13.630;2023-12-14T13:38:18;12.30;;;9.80;;
13366;SDS011;6752;52.612;13.630;2023-12-14T13:43:20;11.10;;;9.17;;
13366;SDS011;6752;52.612;13.630;2023-12-14T13:48:22;12.23;;;9.80;;
13366;SDS011;6752;52.612;13.630;2023-12-14T13:53:25;11.07;;;9.00;;
13366;SDS011;6752;52.612;13.630;2023-12-14T13:58:27;11.57;;;9.50;;
13366;SDS011;6752;52.612;13.630;2023-12-14T14:03:29;10.60;;;9.50;;
13366;SDS011;6752;52.612;13.630;2023-12-14T14:08:32;10.17;;;8.73;;
13366;SDS011;6752;52.612;13.630;2023-12-14T14:13:34;9.80;;;8.60;;
13366;SDS011;6752;52.612;13.630;2023-12-14T14:18:37;10.60;;;8.63;;
13366;SDS011;6752;52.612;13.630;2023-12-14T14:23:39;9.60;;;8.40;;
13366;SDS011;6752;52.612;13.630;2023-12-14T14:28:41;10.10;;;8.80;;
13366;SDS011;6752;52.612;13.630;2023-12-14T14:33:44;10.67;;;8.73;;
13366;SDS011;6752;52.612;13.630;2023-12-14T14:38:46;10.73;;;8.80;;
13366;SDS011;6752;52.612;13.630;2023-12-14T14:43:48;9.90;;;8.90;;
13366;SDS011;6752;52.612;13.630;2023-12-14T14:48:51;10.07;;;8.20;;
13366;SDS011;6752;52.612;13.630;2023-12-14T14:53:53;9.33;;;8.27;;
13366;SDS011;6752;52.612;13.630;2023-12-14T14:58:55;9.57;;;7.90;;
13366;SDS011;6752;52.612;13.630;2023-12-14T15:03:58;9.80;;;8.80;;
13366;SDS011;6752;52.612;13.630;2023-12-14T15:09:00;11.63;;;8.80;;
13366;SDS011;6752;52.612;13.630;2023-12-14T15:14:03;11.03;;;9.30;;
13366;SDS011;6752;52.612;13.630;2023-12-14T15:19:05;12.20;;;9.17;;
13366;SDS011;6752;52.612;13.630;2023-12-14T15:24:07;11.70;;;8.70;;
13366;SDS011;6752;52.612;13.630;2023-12-14T15:29:10;10.70;;;8.47;;
13366;SDS011;6752;52.612;13.630;2023-12-14T15:34:12;11.23;;;9.07;;
13366;SDS011;6752;52.612;13.630;2023-12-14T15:39:14;11.60;;;8.83;;
13366;SDS011;6752;52.612;13.630;2023-12-14T15:44:17;12.37;;;8.93;;
13366;SDS011;6752;52.612;13.630;2023-12-14T15:49:19;11.70;;;9.33;;
13366;SDS011;6752;52.612;13.630;2023-12-14T15:54:21;10.60;;;7.97;;
13366;SDS011;6752;52.612;13.630;2023-12-14T15:59:24;10.18;;;9.02;;
13366;SDS011;6752;52.612;13.630;2023-12-14T16:04:26;10.37;;;8.23;;
13366;SDS011;6752;52.612;13.630;2023-12-14T16:09:28;9.63;;;7.47;;
13366;SDS011;6752;52.612;13.630;2023-12-14T16:14:31;9.77;;;8.43;;
13366;SDS011;6752;52.612;13.630;2023-12-14T16:19:33;11.03;;;8.33;;
13366;SDS011;6752;52.612;13.630;2023-12-14T16:24:36;10.93;;;8.27;;
13366;SDS011;6752;52.612;13.630;2023-12-14T16:29:38;10.17;;;7.37;;
13366;SDS011;6752;52.612;13.630;2023-12-14T16:34:40;10.10;;;7.23;;
13366;SDS011;6752;52.612;13.630;2023-12-14T16:39:43;9.33;;;7.40;;
13366;SDS011;6752;52.612;13.630;2023-12-14T16:44:45;9.00;;;7.03;;
13366;SDS011;6752;52.612;13.630;2023-12-14T16:49:47;10.97;;;7.60;;
13366;SDS011;6752;52.612;13.630;2023-12-14T16:54:50;10.00;;;7.47;;
13366;SDS011;6752;52.612;13.630;2023-12-14T16:59:52;9.63;;;7.53;;
13366;SDS011;6752;52.612;13.630;2023-12-14T17:04:54;9.33;;;7.23;;
13366;SDS011;6752;52.612;13.630;2023-12-14T17:09:57;10.77;;;7.87;;
13366;SDS011;6752;52.612;13.630;2023-12-14T17:14:59;11.13;;;8.40;;
13366;SDS011;6752;52.612;13.630;2023-12-14T17:20:01;12.33;;;8.50;;
13366;SDS011;6752;52.612;13.630;2023-12-14T17:25:04;10.87;;;8.50;;
13366;SDS011;6752;52.612;13.630;2023-12-14T17:30:06;11.23;;;8.60;;
13366;SDS011;6752;52.612;13.630;2023-12-14T17:35:09;11.90;;;8.80;;
13366;SDS011;6752;52.612;13.630;2023-12-14T17:40:11;13.40;;;8.90;;
13366;SDS011;6752;52.612;13.630;2023-12-14T17:45:13;10.90;;;9.40;;
13366;SDS011;6752;52.612;13.630;2023-12-14T17:50:22;11.60;;;8.47;;
13366;SDS011;6752;52.612;13.630;2023-12-14T17:55:24;10.93;;;8.47;;
13366;SDS011;6752;52.612;13.630;2023-12-14T18:00:26;10.60;;;8.13;;
13366;SDS011;6752;52.612;13.630;2023-12-14T18:05:29;10.85;;;9.10;;
13366;SDS011;6752;52.612;13.630;2023-12-14T18:10:31;10.27;;;7.57;;
13366;SDS011;6752;52.612;13.630;2023-12-14T18:15:33;10.80;;;8.20;;
13366;SDS011;6752;52.612;13.630;2023-12-14T18:20:36;10.50;;;8.47;;
13366;SDS011;6752;52.612;13.630;2023-12-14T18:25:38;10.00;;;8.23;;
13366;SDS011;6752;52.612;13.630;2023-12-14T18:30:40;11.97;;;8.93;;
13366;SDS011;6752;52.612;13.630;2023-12-14T18:35:43;11.63;;;8.33;;
13366;SDS011;6752;52.612;13.630;2023-12-14T18:40:45;9.60;;;7.80;;
13366;SDS011;6752;52.612;13.630;2023-12-14T18:45:48;10.63;;;8.33;;
13366;SDS011;6752;52.612;13.630;2023-12-14T18:50:50;11.33;;;8.33;;
13366;SDS011;6752;52.612;13.630;2023-12-14T18:55:57;11.57;;;8.43;;
13366;SDS011;6752;52.612;13.630;2023-12-14T19:00:59;10.50;;;8.23;;
13366;SDS011;6752;52.612;13.630;2023-12-14T19:06:05;12.23;;;8.53;;
13366;SDS011;6752;52.612;13.630;2023-12-14T19:11:04;13.53;;;9.73;;
13366;SDS011;6752;52.612;13.630;2023-12-14T19:16:06;13.10;;;9.50;;
13366;SDS011;6752;52.612;13.630;2023-12-14T19:21:08;11.67;;;8.80;;
13366;SDS011;6752;52.612;13.630;2023-12-14T19:26:17;13.20;;;9.07;;
13366;SDS011;6752;52.612;13.630;2023-12-14T19:31:19;13.37;;;9.67;;
13366;SDS011;6752;52.612;13.630;2023-12-14T19:36:21;11.00;;;8.40;;
13366;SDS011;6752;52.612;13.630;2023-12-14T19:41:24;11.80;;;9.50;;
13366;SDS011;6752;52.612;13.630;2023-12-14T19:46:26;10.70;;;8.60;;
13366;SDS011;6752;52.612;13.630;2023-12-14T19:51:28;11.45;;;9.40;;
13366;SDS011;6752;52.612;13.630;2023-12-14T19:56:31;10.13;;;7.90;;
13366;SDS011;6752;52.612;13.630;2023-12-14T20:01:33;12.10;;;9.03;;
13366;SDS011;6752;52.612;13.630;2023-12-14T20:06:36;11.50;;;8.97;;
13366;SDS011;6752;52.612;13.630;2023-12-14T20:11:38;12.10;;;9.50;;
13366;SDS011;6752;52.612;13.630;2023-12-14T20:16:44;12.37;;;9.10;;
13366;SDS011;6752;52.612;13.630;2023-12-14T20:21:48;11.63;;;9.27;;
13366;SDS011;6752;52.612;13.630;2023-12-14T20:26:54;12.60;;;9.10;;
13366;SDS011;6752;52.612;13.630;2023-12-14T20:31:53;11.45;;;9.73;;
13366;SDS011;6752;52.612;13.630;2023-12-14T20:36:55;11.33;;;8.50;;
13366;SDS011;6752;52.612;13.630;2023-12-14T20:41:57;11.83;;;8.73;;
13366;SDS011;6752;52.612;13.630;2023-12-14T20:47:00;11.20;;;8.73;;
13366;SDS011;6752;52.612;13.630;2023-12-14T20:52:02;12.17;;;8.63;;
13366;SDS011;6752;52.612;13.630;2023-12-14T20:57:05;13.07;;;8.73;;
13366;SDS011;6752;52.612;13.630;2023-12-14T21:02:07;12.50;;;9.47;;
13366;SDS011;6752;52.612;13.630;2023-12-14T21:07:09;13.20;;;9.67;;
13366;SDS011;6752;52.612;13.630;2023-12-14T21:12:12;11.87;;;9.07;;
13366;SDS011;6752;52.612;13.630;2023-12-14T21:17:14;13.03;;;8.63;;
13366;SDS011;6752;52.612;13.630;2023-12-14T21:22:16;11.80;;;8.93;;
13366;SDS011;6752;52.612;13.630;2023-12-14T21:27:19;12.93;;;8.80;;
13366;SDS011;6752;52.612;13.630;2023-12-14T21:32:39;10.60;;;8.53;;
13366;SDS011;6752;52.612;13.630;2023-12-14T21:37:41;11.63;;;9.00;;
13366;SDS011;6752;52.612;13.630;2023-12-14T21:42:44;10.90;;;9.40;;
13366;SDS011;6752;52.612;13.630;2023-12-14T21:47:46;10.70;;;8.57;;
13366;SDS011;6752;52.612;13.630;2023-12-14T21:52:48;12.07;;;8.80;;
13366;SDS011;6752;52.612;13.630;2023-12-14T21:57:51;10.93;;;8.50;;
13366;SDS011;6752;52.612;13.630;2023-12-14T22:02:53;10.03;;;7.90;;
13366;SDS011;6752;52.612;13.630;2023-12-14T22:07:55;11.77;;;9.27;;
13366;SDS011;6752;52.612;13.630;2023-12-14T22:12:58;10.95;;;9.48;;
13366;SDS011;6752;52.612;13.630;2023-12-14T22:18:00;10.97;;;8.73;;
13366;SDS011;6752;52.612;13.630;2023-12-14T22:23:02;10.37;;;7.83;;
13366;SDS011;6752;52.612;13.630;2023-12-14T22:28:05;10.95;;;9.85;;
13366;SDS011;6752;52.612;13.630;2023-12-14T22:33:07;12.50;;;8.70;;
13366;SDS011;6752;52.612;13.630;2023-12-14T22:38:09;12.73;;;9.77;;
13366;SDS011;6752;52.612;13.630;2023-12-14T22:43:12;11.20;;;8.37;;
13366;SDS011;6752;52.612;13.630;2023-12-14T22:48:14;11.80;;;9.00;;
13366;SDS011;6752;52.612;13.630;2023-12-14T22:53:17;11.30;;;8.50;;
13366;SDS011;6752;52.612;13.630;2023-12-14T22:58:19;14.47;;;9.67;;
13366;SDS011;6752;52.612;13.630;2023-12-14T23:03:21;13.17;;;9.97;;
13366;SDS011;6752;52.612;13.630;2023-12-14T23:08:24;12.10;;;9.40;;
13366;SDS011;6752;52.612;13.630;2023-12-14T23:13:26;11.17;;;8.43;;
13366;SDS011;6752;52.612;13.630;2023-12-14T23:18:28;12.30;;;9.23;;
13366;SDS011;6752;52.612;13.630;2023-12-14T23:23:31;11.20;;;8.43;;
13366;SDS011;6752;52.612;13.630;2023-12-14T23:28:33;11.82;;;9.88;;
13366;SDS011;6752;52.612;13.630;2023-12-14T23:33:36;12.67;;;10.57;;
13366;SDS011;6752;52.612;13.630;2023-12-14T23:38:38;12.87;;;9.83;;
13366;SDS011;6752;52.612;13.630;2023-12-14T23:43:40;12.40;;;9.40;;
13366;SDS011;6752;52.612;13.630;2023-12-14T23:48:44;13.10;;;9.93;;
13366;SDS011;6752;52.612;13.630;2023-12-14T23:53:46;14.07;;;9.63;;
13366;SDS011;6752;52.612;13.630;2023-12-14T23:58:48;12.60;;;11.27;;
